createdAt,value
2019-02-14T00:04:09.599Z,75.98
2019-02-14T00:06:57.231Z,75.42
2019-02-14T00:09:25.621Z,75.39
2019-02-14T00:12:13.337Z,76.06
2019-02-14T00:14:41.720Z,75.72
2019-02-14T00:17:10.105Z,75.31
2019-02-14T00:19:57.608Z,75.00
2019-02-14T00:22:25.997Z,74.95
2019-02-14T00:25:13.624Z,74.82
2019-02-14T00:28:01.128Z,74.90
2019-02-14T00:30:48.626Z,74.41
2019-02-14T00:33:36.131Z,74.38
2019-02-14T00:36:23.754Z,74.18
2019-02-14T00:38:52.138Z,74.33
2019-02-14T00:41:20.518Z,74.88
2019-02-14T00:44:08.248Z,75.08
2019-02-14T00:46:55.871Z,75.09
2019-02-14T00:49:43.506Z,74.79
2019-02-14T00:54:59.336Z,74.42
2019-02-14T00:57:27.732Z,74.24
2019-02-14T00:59:56.116Z,74.11
2019-02-14T01:02:43.622Z,73.83
2019-02-14T01:05:12.299Z,73.67
2019-02-14T01:07:40.691Z,73.77
2019-02-14T01:15:51.136Z,74.11
2019-02-14T01:18:38.642Z,74.30
2019-02-14T01:21:07.019Z,74.34
2019-02-14T01:23:35.408Z,75.06
2019-02-14T01:28:52.893Z,74.88
2019-02-14T01:31:40.382Z,75.37
2019-02-14T01:34:27.920Z,75.85
2019-02-14T01:37:15.515Z,75.42
2019-02-14T01:39:43.899Z,75.23
2019-02-14T01:42:31.618Z,74.86
2019-02-14T01:47:52.609Z,74.79
2019-02-14T01:50:40.246Z,74.61
2019-02-14T01:53:27.875Z,75.14
2019-02-14T01:55:56.250Z,75.53
2019-02-14T01:58:24.640Z,75.70
2019-02-14T02:00:53.021Z,75.50
2019-02-14T02:03:21.410Z,75.70
2019-02-14T02:05:51.054Z,75.51
2019-02-14T02:11:14.848Z,75.48
2019-02-14T02:13:43.228Z,75.33
2019-02-14T02:16:23.755Z,75.02
2019-02-14T02:19:11.387Z,75.00
2019-02-14T02:21:59.117Z,75.04
2019-02-14T02:24:46.630Z,74.85
2019-02-14T02:27:34.120Z,74.41
2019-02-14T02:30:21.643Z,73.95
2019-02-14T02:32:49.999Z,73.77
2019-02-14T02:35:18.395Z,74.02
2019-02-14T02:37:46.784Z,74.15
2019-02-14T02:42:48.841Z,73.79
2019-02-14T02:45:17.265Z,73.80
2019-02-14T02:47:45.604Z,73.74
2019-02-14T02:50:14.247Z,73.76
2019-02-14T02:52:42.637Z,73.85
2019-02-14T02:55:50.931Z,73.98
2019-02-14T02:58:19.300Z,74.27
2019-02-14T03:03:41.029Z,74.83
2019-02-14T03:06:28.671Z,74.61
2019-02-14T03:08:57.055Z,74.45
2019-02-14T03:11:44.553Z,74.58
2019-02-14T03:19:43.314Z,75.15
2019-02-14T03:22:11.699Z,75.02
2019-02-14T03:24:40.093Z,75.15
2019-02-14T03:29:55.923Z,75.03
2019-02-14T03:32:24.309Z,75.37
2019-02-14T03:34:52.693Z,75.47
2019-02-14T03:37:21.074Z,75.22
2019-02-14T03:39:49.479Z,75.82
2019-02-14T03:42:17.860Z,75.77
2019-02-14T03:45:05.496Z,75.74
2019-02-14T03:47:33.874Z,75.55
2019-02-14T03:50:02.264Z,76.14
2019-02-14T03:53:10.552Z,76.24
2019-02-14T03:55:58.050Z,76.56
2019-02-14T03:58:45.541Z,77.26
2019-02-14T04:01:13.930Z,78.14
2019-02-14T04:04:01.552Z,78.81
2019-02-14T04:06:29.940Z,78.83
2019-02-14T04:09:17.431Z,79.30
2019-02-14T04:14:39.470Z,80.30
2019-02-14T04:17:07.860Z,80.05
2019-02-14T04:19:55.488Z,80.43
2019-02-14T04:22:23.875Z,80.58
2019-02-14T04:25:11.509Z,80.98
2019-02-14T04:27:39.890Z,80.43
2019-02-14T04:30:27.642Z,80.40
2019-02-14T04:33:15.268Z,80.85
2019-02-14T04:36:02.778Z,81.56
2019-02-14T04:38:31.150Z,81.40
2019-02-14T04:41:18.787Z,81.03
2019-02-14T04:43:47.168Z,80.60
2019-02-14T04:48:49.952Z,79.96
2019-02-14T04:51:18.338Z,79.43
2019-02-14T04:53:46.716Z,78.91
2019-02-14T04:56:55.008Z,78.52
2019-02-14T04:59:42.504Z,77.87
2019-02-14T05:02:10.932Z,77.16
2019-02-14T05:04:58.423Z,77.05
2019-02-14T05:07:26.817Z,76.97
2019-02-14T05:09:55.195Z,77.60
2019-02-14T05:12:23.583Z,77.64
2019-02-14T05:15:11.254Z,77.55
2019-02-14T05:17:39.601Z,77.33
2019-02-14T05:20:27.318Z,76.97
2019-02-14T05:22:55.710Z,76.64
2019-02-14T05:25:24.087Z,76.32
2019-02-14T05:27:52.478Z,76.19
2019-02-14T05:33:08.306Z,76.62
2019-02-14T05:35:55.943Z,76.28
2019-02-14T05:38:24.321Z,76.50
2019-02-14T05:41:11.812Z,76.58
2019-02-14T05:43:40.199Z,77.29
2019-02-14T05:46:08.636Z,77.82
2019-02-14T05:48:37.024Z,78.02
2019-02-14T05:51:24.521Z,79.34
2019-02-14T05:54:12.259Z,79.17
2019-02-14T05:56:40.639Z,78.64
2019-02-14T05:59:09.020Z,78.53
2019-02-14T06:01:56.515Z,78.21
2019-02-14T06:04:24.909Z,78.23
2019-02-14T06:07:12.404Z,78.93
2019-02-14T06:09:40.798Z,78.53
2019-02-14T06:12:09.178Z,78.61
2019-02-14T06:14:56.811Z,78.48
2019-02-14T06:17:44.311Z,78.33
2019-02-14T06:20:52.599Z,77.87
2019-02-14T06:23:21.023Z,77.94
2019-02-14T06:26:08.482Z,79.16
2019-02-14T06:28:37.377Z,80.20
2019-02-14T06:31:06.970Z,79.94
2019-02-14T06:33:54.473Z,80.02
2019-02-14T06:36:22.854Z,79.85
2019-02-14T06:38:51.249Z,80.11
2019-02-14T06:41:19.624Z,79.65
2019-02-14T06:43:48.011Z,79.17
2019-02-14T06:46:35.508Z,79.43
2019-02-14T06:49:03.896Z,79.25
2019-02-14T06:54:19.739Z,79.62
2019-02-14T06:56:48.112Z,79.10
2019-02-14T06:59:35.747Z,79.66
2019-02-14T07:02:23.376Z,80.50
2019-02-14T07:04:51.784Z,80.57
2019-02-14T07:07:39.402Z,80.50
2019-02-14T07:10:47.703Z,80.94
2019-02-14T07:13:35.335Z,81.04
2019-02-14T07:16:03.727Z,81.14
2019-02-14T07:18:32.143Z,80.75
2019-02-14T07:21:19.652Z,80.42
2019-02-14T07:24:07.156Z,79.89
2019-02-14T07:29:22.988Z,78.80
2019-02-14T07:37:12.515Z,75.50
2019-02-14T07:39:40.952Z,74.90
2019-02-14T07:42:15.654Z,74.67
2019-02-14T07:45:03.342Z,74.91
2019-02-14T07:47:31.720Z,75.65
2019-02-14T07:50:00.331Z,71.68
2019-02-14T07:52:49.597Z,69.35
2019-02-14T07:55:18.066Z,67.15
2019-02-14T07:57:46.459Z,65.73
2019-02-14T08:00:54.754Z,65.95
2019-02-14T08:03:23.140Z,63.00
2019-02-14T08:06:10.644Z,57.27
2019-02-14T08:08:58.146Z,55.02
2019-02-14T08:11:26.537Z,52.38
2019-02-14T08:13:54.921Z,51.05
2019-02-14T08:16:23.322Z,46.47
2019-02-14T08:21:58.399Z,43.13
2019-02-14T08:24:46.036Z,42.38
2019-02-14T08:29:48.663Z,39.28
2019-02-14T08:32:36.416Z,38.79
2019-02-14T08:35:44.715Z,38.79
2019-02-14T08:38:32.340Z,36.36
2019-02-14T08:41:19.858Z,37.11
2019-02-14T08:43:48.258Z,37.84
2019-02-14T08:46:35.886Z,37.46
2019-02-14T08:49:23.388Z,35.45
2019-02-14T08:51:51.779Z,35.88
2019-02-14T08:54:20.165Z,35.05
2019-02-14T08:57:07.678Z,35.40
2019-02-14T08:59:36.061Z,34.86
2019-02-14T09:02:04.457Z,34.56
2019-02-14T09:07:20.294Z,34.81
2019-02-14T09:10:28.643Z,33.18
2019-02-14T09:13:04.744Z,33.89
2019-02-14T09:15:33.145Z,34.41
2019-02-14T09:18:20.788Z,34.55
2019-02-14T09:21:08.287Z,35.33
2019-02-14T09:23:55.928Z,34.01
2019-02-14T09:26:24.558Z,34.20
2019-02-14T09:34:54.673Z,32.21
2019-02-14T09:37:42.182Z,33.34
2019-02-14T09:40:50.481Z,33.09
2019-02-14T09:45:52.792Z,32.97
2019-02-14T09:48:40.444Z,32.85
2019-02-14T09:51:08.822Z,33.59
2019-02-14T09:53:37.200Z,35.56
2019-02-14T09:56:05.590Z,34.94
2019-02-14T09:58:53.226Z,33.88
2019-02-14T10:01:21.612Z,33.39
2019-02-14T10:04:09.245Z,32.76
2019-02-14T10:06:56.877Z,34.13
2019-02-14T10:09:44.382Z,34.18
2019-02-14T10:14:46.744Z,33.81
2019-02-14T10:17:22.019Z,35.56
2019-02-14T10:19:45.257Z,35.50
2019-02-14T10:22:32.888Z,34.15
2019-02-14T10:25:20.520Z,34.64
2019-02-14T10:27:48.929Z,34.58
2019-02-14T10:30:57.225Z,34.31
2019-02-14T10:33:44.734Z,36.05
2019-02-14T10:36:13.118Z,37.43
2019-02-14T10:38:41.530Z,37.48
2019-02-14T10:41:29.397Z,36.14
2019-02-14T10:44:18.754Z,37.00
2019-02-14T10:46:47.137Z,37.53
2019-02-14T10:49:15.533Z,36.38
2019-02-14T10:52:03.265Z,36.32
2019-02-14T10:54:31.652Z,36.54
2019-02-14T10:57:19.286Z,36.17
2019-02-14T11:03:23.030Z,38.09
2019-02-14T11:06:31.433Z,37.77
2019-02-14T11:08:59.832Z,39.54
2019-02-14T11:11:28.216Z,39.91
2019-02-14T11:13:56.617Z,39.23
2019-02-14T11:16:44.117Z,40.61
2019-02-14T11:19:12.507Z,40.01
2019-02-14T11:22:00.006Z,41.95
2019-02-14T11:24:47.512Z,41.28
2019-02-14T11:27:35.211Z,42.83
2019-02-14T11:30:43.521Z,41.73
2019-02-14T11:35:59.442Z,42.13
2019-02-14T11:38:27.833Z,42.49
2019-02-14T11:41:15.546Z,42.87
2019-02-14T11:43:43.935Z,43.28
2019-02-14T11:46:12.326Z,44.58
2019-02-14T11:49:00.044Z,44.46
2019-02-14T11:51:28.446Z,43.60
2019-02-14T11:54:15.952Z,44.63
2019-02-14T11:57:03.567Z,46.00
2019-02-14T11:59:51.075Z,45.57
2019-02-14T12:02:38.575Z,45.34
2019-02-14T12:05:46.863Z,46.47
2019-02-14T12:08:15.240Z,45.10
2019-02-14T12:11:02.896Z,46.40
2019-02-14T12:13:31.258Z,46.06
2019-02-14T12:16:18.887Z,44.67
2019-02-14T12:19:06.515Z,45.61
2019-02-14T12:21:34.890Z,45.37
2019-02-14T12:24:03.266Z,44.44
2019-02-14T12:26:50.904Z,42.99
2019-02-14T12:29:19.295Z,41.89
2019-02-14T12:31:47.671Z,42.23
2019-02-14T12:34:16.042Z,42.76
2019-02-14T12:37:03.549Z,42.65
2019-02-14T12:39:31.927Z,42.37
2019-02-14T12:42:19.548Z,42.82
2019-02-14T12:44:47.931Z,42.29
2019-02-14T12:47:16.321Z,43.01
2019-02-14T12:49:44.822Z,43.42
2019-02-14T12:52:13.205Z,44.44
2019-02-14T12:55:00.872Z,42.66
2019-02-14T12:57:29.287Z,41.61
2019-02-14T12:59:57.754Z,40.81
2019-02-14T13:02:26.127Z,43.10
2019-02-14T13:05:13.775Z,42.82
2019-02-14T13:08:01.506Z,42.20
2019-02-14T13:10:49.036Z,41.71
2019-02-14T13:13:17.452Z,41.60
2019-02-14T13:16:05.119Z,41.28
2019-02-14T13:18:33.529Z,42.04
2019-02-14T13:21:01.961Z,41.77
2019-02-14T13:23:49.610Z,41.64
2019-02-14T13:26:37.264Z,41.67
2019-02-14T13:29:24.896Z,40.79
2019-02-14T13:31:53.329Z,40.22
2019-02-14T13:34:21.755Z,40.83
2019-02-14T13:36:50.184Z,40.55
2019-02-14T13:39:37.731Z,41.42
2019-02-14T13:42:06.470Z,40.87
2019-02-14T13:44:34.886Z,40.88
2019-02-14T13:47:03.320Z,40.52
2019-02-14T13:49:50.856Z,41.10
2019-02-14T13:52:19.288Z,41.37
2019-02-14T13:54:47.673Z,42.88
2019-02-14T13:57:16.090Z,42.90
2019-02-14T13:59:44.489Z,42.05
2019-02-14T14:02:12.895Z,41.70
2019-02-14T14:04:41.287Z,41.28
2019-02-14T14:07:28.934Z,41.56
2019-02-14T14:10:16.527Z,42.56
2019-02-14T14:13:04.032Z,41.13
2019-02-14T14:18:19.851Z,40.53
2019-02-14T14:21:07.351Z,40.36
2019-02-14T14:23:35.724Z,41.20
2019-02-14T14:26:23.363Z,41.66
2019-02-14T14:29:10.987Z,40.75
2019-02-14T14:31:39.373Z,40.95
2019-02-14T14:34:27.096Z,38.38
2019-02-14T14:37:14.730Z,37.67
2019-02-14T14:39:47.719Z,38.57
2019-02-14T14:50:01.667Z,38.78
2019-02-14T14:52:30.052Z,38.74
2019-02-14T14:55:17.543Z,39.20
2019-02-14T14:57:45.927Z,39.03
2019-02-14T15:00:33.544Z,39.45
2019-02-14T15:03:01.922Z,38.91
2019-02-14T15:05:49.548Z,39.11
2019-02-14T15:08:37.051Z,38.85
2019-02-14T15:13:52.874Z,39.43
2019-02-14T15:16:40.358Z,39.74
2019-02-14T15:19:27.859Z,39.64
2019-02-14T15:21:56.508Z,39.80
2019-02-14T15:24:44.009Z,39.65
2019-02-14T15:27:12.396Z,39.87
2019-02-14T15:32:47.340Z,40.54
2019-02-14T15:35:15.708Z,39.93
2019-02-14T15:38:03.431Z,40.30
2019-02-14T15:40:50.940Z,39.74
2019-02-14T15:43:38.443Z,40.21
2019-02-14T15:46:25.940Z,40.70
2019-02-14T15:48:54.323Z,40.85
2019-02-14T15:51:43.739Z,39.96
2019-02-14T15:56:45.731Z,39.71
2019-02-14T15:59:14.118Z,41.10
2019-02-14T16:01:44.363Z,40.54
2019-02-14T16:04:12.605Z,40.56
2019-02-14T16:07:00.218Z,41.02
2019-02-14T16:09:28.853Z,40.88
2019-02-14T16:11:57.888Z,41.15
2019-02-14T16:14:27.343Z,40.98
2019-02-14T16:22:19.445Z,41.57
2019-02-14T16:24:47.744Z,41.88
2019-02-14T16:27:16.426Z,41.79
2019-02-14T16:29:46.797Z,42.32
2019-02-14T16:32:34.022Z,42.71
2019-02-14T16:35:02.406Z,42.46
2019-02-14T16:37:50.595Z,42.84
2019-02-14T16:40:39.114Z,42.73
2019-02-14T16:43:07.512Z,43.10
2019-02-14T16:45:55.145Z,43.22
2019-02-14T16:48:42.649Z,43.16
2019-02-14T16:51:11.025Z,43.59
2019-02-14T16:53:39.408Z,43.47
2019-02-14T16:56:27.026Z,43.74
2019-02-14T16:58:55.430Z,43.96
2019-02-14T17:01:43.063Z,44.23
2019-02-14T17:04:11.468Z,44.45
2019-02-14T17:06:58.965Z,44.70
2019-02-14T17:09:27.356Z,44.83
2019-02-14T17:12:14.980Z,45.10
2019-02-14T17:15:02.612Z,45.70
2019-02-14T17:17:30.989Z,45.56
2019-02-14T17:20:18.621Z,46.28
2019-02-14T17:22:47.005Z,47.14
2019-02-14T17:25:17.202Z,46.69
2019-02-14T17:27:45.508Z,46.45
2019-02-14T17:30:33.018Z,47.25
2019-02-14T17:33:20.636Z,47.06
2019-02-14T17:38:42.735Z,47.93
2019-02-14T17:41:11.120Z,48.20
2019-02-14T17:43:58.759Z,48.48
2019-02-14T17:46:46.253Z,48.55
2019-02-14T17:51:49.150Z,49.15
2019-02-14T17:54:17.529Z,49.62
2019-02-14T17:57:05.018Z,49.67
2019-02-14T17:59:33.397Z,49.79
2019-02-14T18:02:01.777Z,49.83
2019-02-14T18:04:49.407Z,49.88
2019-02-14T18:07:17.793Z,50.51
2019-02-14T18:09:46.178Z,50.55
2019-02-14T18:12:14.546Z,50.41
2019-02-14T18:14:42.927Z,50.52
2019-02-14T18:17:30.546Z,50.45
2019-02-14T18:19:58.932Z,50.50
2019-02-14T18:22:46.558Z,50.68
2019-02-14T18:25:54.852Z,51.40
2019-02-14T18:28:42.576Z,52.95
2019-02-14T18:31:30.203Z,53.50
2019-02-14T18:34:17.689Z,54.32
2019-02-14T18:36:46.070Z,55.30
2019-02-14T18:39:33.696Z,55.56
2019-02-14T18:42:21.309Z,55.98
2019-02-14T18:44:49.692Z,56.35
2019-02-14T18:47:18.061Z,56.64
2019-02-14T18:49:46.467Z,56.69
2019-02-14T18:52:33.932Z,57.74
2019-02-14T18:55:02.317Z,57.76
2019-02-14T18:57:30.712Z,57.80
2019-02-14T19:02:33.119Z,58.75
2019-02-14T19:05:20.618Z,58.93
2019-02-14T19:07:48.986Z,59.25
2019-02-14T19:10:57.287Z,59.91
2019-02-14T19:13:44.901Z,60.35
2019-02-14T19:16:32.530Z,60.53
2019-02-14T19:19:20.164Z,60.56
2019-02-14T19:21:48.543Z,60.87
2019-02-14T19:24:18.706Z,61.13
2019-02-14T19:27:06.161Z,61.35
2019-02-14T19:29:53.783Z,61.64
2019-02-14T19:32:41.306Z,61.93
2019-02-14T19:35:49.584Z,62.36
2019-02-14T19:38:17.961Z,62.45
2019-02-14T19:40:46.351Z,62.49
2019-02-14T19:43:14.733Z,62.73
2019-02-14T19:46:02.464Z,63.05
2019-02-14T19:48:50.103Z,63.27
2019-02-14T19:51:18.513Z,63.55
2019-02-14T19:53:46.912Z,63.78
2019-02-14T19:56:15.304Z,63.97
2019-02-14T19:59:02.950Z,64.24
2019-02-14T20:01:50.588Z,64.16
2019-02-14T20:04:18.972Z,64.83
2019-02-14T20:07:06.477Z,65.82
2019-02-14T20:09:34.855Z,65.97
2019-02-14T20:12:22.502Z,65.80
2019-02-14T20:14:50.884Z,65.82
2019-02-14T20:17:38.761Z,65.84
2019-02-14T20:20:47.117Z,65.86
2019-02-14T20:26:22.235Z,66.35
2019-02-14T20:28:50.617Z,66.60
2019-02-14T20:31:19.102Z,66.45
2019-02-14T20:34:06.599Z,66.22
2019-02-14T20:36:34.988Z,66.50
2019-02-14T20:41:52.471Z,66.61
2019-02-14T20:44:40.091Z,66.67
2019-02-14T20:47:27.612Z,66.90
2019-02-14T20:49:56.015Z,66.89
2019-02-14T20:52:24.420Z,67.03
2019-02-14T20:57:40.244Z,67.31
2019-02-14T21:00:48.536Z,67.37
2019-02-14T21:03:16.961Z,67.55
2019-02-14T21:06:04.764Z,68.57
2019-02-14T21:08:52.403Z,68.98
2019-02-14T21:11:20.794Z,69.49
2019-02-14T21:14:08.422Z,69.77
2019-02-14T21:16:36.811Z,69.56
2019-02-14T21:19:24.304Z,69.49
2019-02-14T21:21:52.958Z,69.34
2019-02-14T21:24:21.332Z,69.07
2019-02-14T21:27:08.987Z,68.65
2019-02-14T21:29:56.623Z,68.50
2019-02-14T21:32:44.256Z,68.59
2019-02-14T21:35:52.790Z,68.68
2019-02-14T21:38:21.174Z,68.67
2019-02-14T21:40:50.013Z,69.04
2019-02-14T21:43:37.978Z,69.08
2019-02-14T21:46:25.505Z,68.71
2019-02-14T21:48:54.165Z,68.57
2019-02-14T21:51:41.856Z,69.83
2019-02-14T21:54:29.481Z,70.29
2019-02-14T21:57:17.123Z,70.21
2019-02-14T21:59:45.496Z,70.36
2019-02-14T22:04:47.889Z,70.36
2019-02-14T22:07:35.778Z,70.56
2019-02-14T22:10:44.063Z,70.40
2019-02-14T22:13:12.455Z,71.11
2019-02-14T22:15:40.828Z,71.03
2019-02-14T22:18:09.226Z,70.88
2019-02-14T22:20:37.600Z,70.53
2019-02-14T22:30:48.548Z,70.38
2019-02-14T22:33:16.938Z,71.01
2019-02-14T22:36:04.444Z,70.52
2019-02-14T22:38:32.833Z,70.67
2019-02-14T22:41:20.455Z,71.04
2019-02-14T22:43:48.836Z,71.13
2019-02-14T22:46:17.212Z,71.17
2019-02-14T22:48:45.590Z,71.17
2019-02-14T22:51:13.962Z,71.22
2019-02-14T22:53:42.345Z,71.11
2019-02-14T22:56:29.967Z,71.27
2019-02-14T23:01:32.194Z,71.30
2019-02-14T23:04:19.695Z,71.78
2019-02-14T23:06:48.070Z,71.50
2019-02-14T23:11:51.641Z,71.49
2019-02-14T23:14:20.030Z,71.54
2019-02-14T23:20:14.073Z,71.45
2019-02-14T23:25:29.889Z,71.68
2019-02-14T23:28:17.810Z,71.67
2019-02-14T23:31:05.431Z,71.62
2019-02-14T23:33:34.050Z,71.53
2019-02-14T23:36:21.677Z,71.32
2019-02-14T23:38:50.058Z,71.26
2019-02-14T23:41:18.430Z,71.33
2019-02-14T23:43:46.818Z,71.43
2019-02-14T23:46:34.310Z,71.48
2019-02-14T23:49:02.691Z,71.78
2019-02-14T23:54:18.511Z,71.75
2019-02-14T23:57:06.135Z,71.83
2019-02-14T23:59:53.643Z,71.98
